createdAt,value
2022-09-09T00:00:02.647Z,19.9
2022-09-09T00:03:02.717Z,16.6
2022-09-09T00:06:02.694Z,15.1
2022-09-09T00:09:02.679Z,14.3
2022-09-09T00:12:02.697Z,12.7
2022-09-09T00:15:02.698Z,9.5
2022-09-09T00:18:02.711Z,9
2022-09-09T00:21:02.726Z,9.2
2022-09-09T00:24:02.766Z,10
2022-09-09T00:27:02.748Z,8.7
2022-09-09T00:30:02.761Z,7.5
2022-09-09T00:33:02.773Z,7.4
2022-09-09T00:36:02.778Z,7.4
2022-09-09T00:39:02.794Z,6.4
2022-09-09T00:42:02.830Z,5.9
2022-09-09T00:45:02.812Z,6.4
2022-09-09T00:48:02.826Z,6.3
2022-09-09T00:51:02.839Z,6.8
2022-09-09T00:54:02.850Z,6.8
2022-09-09T00:57:02.862Z,5.9
2022-09-09T01:00:02.898Z,7.7
2022-09-09T01:03:02.885Z,6.5
2022-09-09T01:06:02.894Z,5.9
2022-09-09T01:09:02.914Z,5.9
2022-09-09T01:12:02.925Z,6.6
2022-09-09T01:15:02.939Z,5.9
2022-09-09T01:18:02.972Z,5.1
2022-09-09T01:21:02.958Z,6.3
2022-09-09T01:24:02.969Z,4.7
2022-09-09T01:27:02.982Z,6.9
2022-09-09T01:30:02.990Z,6.3
2022-09-09T01:33:02.999Z,6.5
2022-09-09T01:36:03.034Z,5.6
2022-09-09T01:39:03.020Z,6.3
2022-09-09T01:42:03.023Z,5.8
2022-09-09T01:45:03.028Z,5.6
2022-09-09T01:48:03.042Z,5.3
2022-09-09T01:51:03.047Z,4.8
2022-09-09T01:54:03.090Z,5.4
2022-09-09T01:57:03.079Z,5.9
2022-09-09T02:00:03.084Z,5.8
2022-09-09T02:03:03.086Z,5.5
2022-09-09T02:06:03.098Z,3.9
2022-09-09T02:09:03.100Z,6.6
2022-09-09T02:12:03.138Z,4.3
2022-09-09T02:15:03.130Z,5
2022-09-09T02:18:03.136Z,6.1
2022-09-09T02:21:03.142Z,4.9
2022-09-09T02:24:03.151Z,4.4
2022-09-09T02:27:03.170Z,5
2022-09-09T02:30:03.209Z,5.1
2022-09-09T02:33:03.189Z,6.2
2022-09-09T02:36:03.195Z,5
2022-09-09T02:39:03.211Z,5.3
2022-09-09T02:42:03.208Z,5.8
2022-09-09T02:45:03.229Z,5
2022-09-09T02:48:03.257Z,4.6
2022-09-09T02:51:03.246Z,5.1
2022-09-09T02:54:03.258Z,4
2022-09-09T02:57:03.268Z,3.9
2022-09-09T03:00:03.274Z,5.2
2022-09-09T03:03:03.278Z,4.8
2022-09-09T03:06:03.321Z,5.2
2022-09-09T03:09:03.297Z,5.1
2022-09-09T03:12:03.299Z,4.9
2022-09-09T03:15:03.311Z,4.2
2022-09-09T03:18:03.315Z,5.2
2022-09-09T03:21:03.322Z,5.3
2022-09-09T03:24:03.359Z,5.3
2022-09-09T03:27:03.345Z,6.7
2022-09-09T03:30:03.354Z,5.3
2022-09-09T03:33:03.359Z,5.6
2022-09-09T03:36:03.371Z,6.5
2022-09-09T03:39:03.382Z,7.9
2022-09-09T03:42:03.408Z,5.8
2022-09-09T03:45:03.401Z,5.9
2022-09-09T03:48:03.405Z,6.4
2022-09-09T03:51:03.417Z,4.3
2022-09-09T03:54:03.411Z,4.8
2022-09-09T03:57:03.430Z,6.9
2022-09-09T04:00:03.483Z,7.1
2022-09-09T04:03:03.449Z,6.5
2022-09-09T04:06:03.462Z,6.1
2022-09-09T04:09:03.470Z,7.7
2022-09-09T04:12:03.481Z,6.5
2022-09-09T04:15:03.492Z,7.1
2022-09-09T04:18:03.526Z,6.3
2022-09-09T04:21:03.506Z,5.8
2022-09-09T04:24:03.518Z,6.5
2022-09-09T04:27:03.530Z,7
2022-09-09T04:30:03.546Z,8.5
2022-09-09T04:33:03.562Z,7.6
2022-09-09T04:36:03.595Z,6.1
2022-09-09T04:39:03.581Z,6.9
2022-09-09T04:42:03.586Z,6.3
2022-09-09T04:45:03.601Z,5.8
2022-09-09T04:48:03.610Z,6.4
2022-09-09T04:51:03.622Z,5.4
2022-09-09T04:54:03.656Z,6.6
2022-09-09T04:57:03.632Z,6.9
2022-09-09T05:00:03.647Z,7
2022-09-09T05:03:03.656Z,7
2022-09-09T05:06:03.659Z,7.2
2022-09-09T05:09:03.680Z,8.9
2022-09-09T05:12:03.725Z,6.5
2022-09-09T05:15:03.704Z,7.7
2022-09-09T05:18:03.710Z,7.4
2022-09-09T05:21:03.725Z,6.1
2022-09-09T05:24:03.747Z,7.5
2022-09-09T05:27:03.759Z,6.3
2022-09-09T05:30:03.795Z,8.2
2022-09-09T05:33:03.782Z,6.5
2022-09-09T05:36:03.798Z,6.3
2022-09-09T05:39:03.810Z,6.5
2022-09-09T05:42:03.825Z,7.3
2022-09-09T05:45:03.836Z,6.6
2022-09-09T05:48:03.864Z,7.3
2022-09-09T05:51:03.851Z,6.8
2022-09-09T05:54:03.862Z,6.1
2022-09-09T05:57:03.876Z,6.1
2022-09-09T06:00:03.886Z,5
2022-09-09T06:03:04.010Z,6.2
2022-09-09T06:06:03.932Z,5.9
2022-09-09T06:09:03.931Z,6.5
2022-09-09T06:12:03.941Z,6.8
2022-09-09T06:15:03.958Z,7.9
2022-09-09T06:18:03.979Z,8.9
2022-09-09T06:21:03.997Z,7.1
2022-09-09T06:24:04.035Z,7.7
2022-09-09T06:27:04.023Z,5.4
2022-09-09T06:30:04.022Z,5.2
2022-09-09T06:33:04.026Z,6.9
2022-09-09T06:36:04.033Z,4.6
2022-09-09T06:39:04.032Z,5.8
2022-09-09T06:42:04.060Z,5.8
2022-09-09T06:45:04.033Z,6.9
2022-09-09T06:48:04.037Z,3.5
2022-09-09T06:51:04.047Z,4.9
2022-09-09T06:54:04.031Z,4.7
2022-09-09T06:57:15.627Z,5.1
2022-09-09T07:00:04.076Z,5.9
2022-09-09T07:03:04.058Z,6.8
2022-09-09T07:06:04.059Z,5.7
2022-09-09T07:09:04.065Z,5.3
2022-09-09T07:12:04.067Z,5.4
2022-09-09T07:15:04.064Z,6.4
2022-09-09T07:18:04.092Z,5.4
2022-09-09T07:21:04.071Z,6.2
2022-09-09T07:24:04.064Z,5.1
2022-09-09T07:27:04.067Z,7
2022-09-09T07:30:04.073Z,5.3
2022-09-09T07:33:04.072Z,4.7
2022-09-09T07:36:04.096Z,4.1
2022-09-09T07:39:04.253Z,5.6
2022-09-09T07:42:04.091Z,5.5
2022-09-09T07:45:04.074Z,4.8
2022-09-09T07:48:04.081Z,4.9
2022-09-09T07:51:04.079Z,4.9
2022-09-09T07:54:04.104Z,5.1
2022-09-09T07:57:04.083Z,6.3
2022-09-09T08:00:04.077Z,4.8
2022-09-09T08:03:04.161Z,4.5
2022-09-09T08:06:04.083Z,5.1
2022-09-09T08:09:04.083Z,4.6
2022-09-09T08:12:04.113Z,4.3
2022-09-09T08:15:04.083Z,5.1
2022-09-09T08:18:04.086Z,3.4
2022-09-09T08:21:04.088Z,5
2022-09-09T08:24:04.087Z,4.1
2022-09-09T08:27:04.094Z,4.7
2022-09-09T08:30:04.119Z,4.7
2022-09-09T08:33:04.096Z,3.6
2022-09-09T08:36:04.090Z,4.6
2022-09-09T08:39:04.094Z,3.9
2022-09-09T08:42:04.098Z,6.3
2022-09-09T08:45:04.097Z,4.1
2022-09-09T08:48:04.128Z,3.1
2022-09-09T08:51:04.104Z,6.1
2022-09-09T08:54:04.109Z,4.6
2022-09-09T08:57:04.106Z,4.4
2022-09-09T09:00:04.236Z,4.5
2022-09-09T09:03:04.115Z,4.1
2022-09-09T09:06:04.142Z,3.5
2022-09-09T09:09:04.117Z,3.9
2022-09-09T09:12:04.123Z,3.5
2022-09-09T09:15:04.116Z,4.1
2022-09-09T09:18:04.113Z,5.3
2022-09-09T09:21:04.117Z,3.8
2022-09-09T09:24:04.145Z,3.6
2022-09-09T09:27:04.139Z,2.7
2022-09-09T09:30:22.778Z,4.6
2022-09-09T09:33:04.121Z,4.5
2022-09-09T09:36:04.125Z,5.9
2022-09-09T09:42:05.161Z,3.7
2022-09-09T09:45:04.142Z,3.8
2022-09-09T09:48:07.281Z,4.5
2022-09-09T09:51:04.137Z,3.4
2022-09-09T09:54:04.141Z,4.2
2022-09-09T09:57:04.161Z,4
2022-09-09T10:00:04.174Z,4.7
2022-09-09T10:03:04.153Z,3.9
2022-09-09T10:06:04.163Z,5
2022-09-09T10:09:04.159Z,4.1
2022-09-09T10:12:04.189Z,5.1
2022-09-09T10:15:04.156Z,5.3
2022-09-09T10:18:04.196Z,4.9
2022-09-09T10:21:04.170Z,4.2
2022-09-09T10:24:04.178Z,3.6
2022-09-09T10:27:04.177Z,3.1
2022-09-09T10:30:04.179Z,3.4
2022-09-09T10:33:04.237Z,4
2022-09-09T10:36:04.209Z,4.6
2022-09-09T10:39:04.190Z,5.1
2022-09-09T10:42:04.192Z,4
2022-09-09T10:45:04.215Z,3
2022-09-09T10:48:04.189Z,4
2022-09-09T10:51:05.185Z,4
2022-09-09T10:54:04.219Z,3.3
2022-09-09T10:57:04.200Z,3.6
2022-09-09T11:00:04.199Z,4.3
2022-09-09T11:03:04.201Z,4.5
2022-09-09T11:06:04.228Z,3
2022-09-09T11:09:04.214Z,4.4
2022-09-09T11:12:04.232Z,3.5
2022-09-09T11:15:04.211Z,2.9
2022-09-09T11:18:04.212Z,4.2
2022-09-09T11:21:04.216Z,4.9
2022-09-09T11:24:04.262Z,3.4
2022-09-09T11:27:04.232Z,3.5
2022-09-09T11:30:04.274Z,3.9
2022-09-09T11:33:04.236Z,3.1
2022-09-09T11:36:05.785Z,3.6
2022-09-09T11:39:04.237Z,3.7
2022-09-09T11:42:04.247Z,2.8
2022-09-09T11:45:04.252Z,2.4
2022-09-09T11:48:04.276Z,3.8
2022-09-09T11:51:04.253Z,4.3
2022-09-09T11:54:04.254Z,3.7
2022-09-09T11:57:04.253Z,3.5
2022-09-09T12:00:04.258Z,3.2
2022-09-09T12:03:04.261Z,3.9
2022-09-09T12:06:04.287Z,3.8
2022-09-09T12:09:04.272Z,4.2
2022-09-09T12:12:04.272Z,4.7
2022-09-09T12:15:04.277Z,4.4
2022-09-09T12:18:04.272Z,3.4
2022-09-09T12:21:04.282Z,3.1
2022-09-09T12:24:04.305Z,3.4
2022-09-09T12:27:04.284Z,4.3
2022-09-09T12:30:04.353Z,3.7
2022-09-09T12:33:04.288Z,5.3
2022-09-09T12:36:04.288Z,3.3
2022-09-09T12:39:04.292Z,5.7
2022-09-09T12:42:04.339Z,5.5
2022-09-09T12:45:04.307Z,4.8
2022-09-09T12:48:04.296Z,4.7
2022-09-09T12:51:04.301Z,6.4
2022-09-09T12:54:04.311Z,7.3
2022-09-09T12:57:04.324Z,6.4
2022-09-09T13:00:04.352Z,5.4
2022-09-09T13:03:04.326Z,6.9
2022-09-09T13:06:04.330Z,5.6
2022-09-09T13:09:04.370Z,5.2
2022-09-09T13:12:04.340Z,6.5
2022-09-09T13:15:04.343Z,3.6
2022-09-09T13:18:04.376Z,5.2
2022-09-09T13:21:04.353Z,3.8
2022-09-09T13:24:04.353Z,3.9
2022-09-09T13:27:04.356Z,4.8
2022-09-09T13:30:04.394Z,4.2
2022-09-09T13:33:04.372Z,4.3
2022-09-09T13:36:04.387Z,7.2
2022-09-09T13:39:04.388Z,5
2022-09-09T13:42:04.379Z,4.1
2022-09-09T13:45:04.383Z,4.4
2022-09-09T13:48:04.973Z,6
2022-09-09T13:51:04.397Z,4.3
2022-09-09T13:54:04.419Z,5.1
2022-09-09T13:57:04.402Z,5.8
2022-09-09T14:00:05.657Z,5.6
2022-09-09T14:03:04.414Z,4.6
2022-09-09T14:06:04.407Z,4.2
2022-09-09T14:09:04.410Z,4.9
2022-09-09T14:12:04.448Z,5.2
2022-09-09T14:15:04.417Z,3.9
2022-09-09T14:18:04.424Z,5.5
2022-09-09T14:21:04.428Z,4.8
2022-09-09T14:24:04.430Z,4.7
2022-09-09T14:27:04.435Z,3.8
2022-09-09T14:30:04.468Z,5.4
2022-09-09T14:33:04.445Z,3.9
2022-09-09T14:36:04.453Z,4.5
2022-09-09T14:39:04.453Z,3.4
2022-09-09T14:42:04.465Z,5.5
2022-09-09T14:45:04.462Z,5.2
2022-09-09T14:48:04.493Z,4.4
2022-09-09T14:51:04.477Z,3
2022-09-09T14:54:04.630Z,6
2022-09-09T14:57:04.485Z,4
2022-09-09T15:00:04.488Z,4
2022-09-09T15:03:04.583Z,5.1
2022-09-09T15:06:04.526Z,4.6
2022-09-09T15:09:04.511Z,2.9
2022-09-09T15:12:04.509Z,3.3
2022-09-09T15:15:04.513Z,3.3
2022-09-09T15:18:04.522Z,5.1
2022-09-09T15:21:04.524Z,3.7
2022-09-09T15:24:04.554Z,3.7
2022-09-09T15:27:04.537Z,3.3
2022-09-09T15:30:04.548Z,4
2022-09-09T15:33:04.557Z,4.5
2022-09-09T15:36:04.554Z,5
2022-09-09T15:39:04.563Z,5
2022-09-09T15:42:04.598Z,3.6
2022-09-09T15:45:04.572Z,4.2
2022-09-09T15:48:04.576Z,3.1
2022-09-09T15:51:07.814Z,4
2022-09-09T15:54:04.592Z,3.1
2022-09-09T15:57:04.602Z,3.6
2022-09-09T16:00:04.637Z,4.7
2022-09-09T16:03:04.615Z,4.6
2022-09-09T16:06:04.615Z,4.1
2022-09-09T16:09:04.619Z,3.3
2022-09-09T16:12:04.637Z,3.9
2022-09-09T16:15:04.638Z,4.3
2022-09-09T16:18:04.669Z,4
2022-09-09T16:21:04.655Z,3.6
2022-09-09T16:24:04.668Z,4.4
2022-09-09T16:27:04.659Z,5.1
2022-09-09T16:30:04.674Z,6
2022-09-09T16:33:04.680Z,6.3
2022-09-09T16:36:04.707Z,10.5
2022-09-09T16:39:04.685Z,6.3
2022-09-09T16:42:04.717Z,5.2
2022-09-09T16:45:04.730Z,4.7
2022-09-09T16:48:04.736Z,4.5
2022-09-09T16:51:04.736Z,5.6
2022-09-09T16:54:04.763Z,3.6
2022-09-09T16:57:04.760Z,5.3
2022-09-09T17:00:04.752Z,5.5
2022-09-09T17:03:04.803Z,4.9
2022-09-09T17:06:04.758Z,5.4
2022-09-09T17:09:04.758Z,7.9
2022-09-09T17:12:04.781Z,5.1
2022-09-09T17:15:04.763Z,6.2
2022-09-09T17:18:04.759Z,5.7
2022-09-09T17:21:04.757Z,4.6
2022-09-09T17:24:04.765Z,6.6
2022-09-09T17:27:04.771Z,5.9
2022-09-09T17:30:04.782Z,5.1
2022-09-09T17:33:04.763Z,6.3
2022-09-09T17:36:04.762Z,6.7
2022-09-09T17:39:04.763Z,7.3
2022-09-09T17:42:04.764Z,7.2
2022-09-09T17:45:04.764Z,5.2
2022-09-09T17:48:04.813Z,5.4
2022-09-09T17:51:04.788Z,5.8
2022-09-09T17:54:04.773Z,5.2
2022-09-09T17:57:04.774Z,6
2022-09-09T18:00:04.780Z,6.9
2022-09-09T18:03:04.832Z,4.6
2022-09-09T18:06:04.809Z,6.2
2022-09-09T18:09:04.783Z,6.3
2022-09-09T18:12:04.792Z,5.6
2022-09-09T18:15:04.794Z,6.1
2022-09-09T18:18:04.784Z,6
2022-09-09T18:21:04.793Z,6.8
2022-09-09T18:24:04.816Z,4.5
2022-09-09T18:27:04.805Z,6.2
2022-09-09T18:30:04.794Z,7.9
2022-09-09T18:33:04.796Z,6.8
2022-09-09T18:36:04.807Z,7.3
2022-09-09T18:39:04.803Z,6.6
2022-09-09T18:42:04.832Z,7.3
2022-09-09T18:45:04.807Z,8.6
2022-09-09T18:48:04.812Z,6.9
2022-09-09T18:51:04.953Z,5.4
2022-09-09T18:54:04.816Z,6
2022-09-09T18:57:04.820Z,7.1
2022-09-09T19:00:04.846Z,5.9
2022-09-09T19:03:04.825Z,7.2
2022-09-09T19:06:04.827Z,7.3
2022-09-09T19:09:05.523Z,5.4
2022-09-09T19:12:04.839Z,6.1
2022-09-09T19:15:04.840Z,8.2
2022-09-09T19:18:05.961Z,9.1
2022-09-09T19:21:04.840Z,7.4
2022-09-09T19:24:04.850Z,5.9
2022-09-09T19:27:04.855Z,5.4
2022-09-09T19:30:04.854Z,6.2
2022-09-09T19:33:04.856Z,7
2022-09-09T19:36:04.915Z,8.9
2022-09-09T19:39:04.862Z,7.3
2022-09-09T19:42:04.875Z,7.4
2022-09-09T19:45:04.880Z,7.7
2022-09-09T19:48:04.885Z,7.3
2022-09-09T19:51:04.883Z,5.6
2022-09-09T19:54:04.908Z,7.2
2022-09-09T19:57:04.887Z,5.2
2022-09-09T20:00:04.907Z,6.8
2022-09-09T20:03:18.524Z,5.3
2022-09-09T20:06:04.921Z,6
2022-09-09T20:09:04.918Z,6.3
2022-09-09T20:12:04.948Z,8
2022-09-09T20:15:04.930Z,6
2022-09-09T20:18:04.932Z,7.4
2022-09-09T20:21:04.937Z,5
2022-09-09T20:24:04.937Z,7.2
2022-09-09T20:27:04.947Z,6.5
2022-09-09T20:30:04.979Z,7.5
2022-09-09T20:33:04.962Z,6.4
2022-09-09T20:36:04.964Z,9.5
2022-09-09T20:39:04.974Z,6.9
2022-09-09T20:42:04.995Z,9.2
2022-09-09T20:45:04.976Z,9.1
2022-09-09T20:48:05.007Z,9
2022-09-09T20:51:04.990Z,6.7
2022-09-09T20:54:04.996Z,7.6
2022-09-09T20:57:04.995Z,8.5
2022-09-09T21:00:04.993Z,6.7
2022-09-09T21:03:05.012Z,6.4
2022-09-09T21:06:05.042Z,7.6
2022-09-09T21:09:05.017Z,6.6
2022-09-09T21:12:05.031Z,6
2022-09-09T21:15:05.029Z,5.7
2022-09-09T21:18:05.049Z,5.4
2022-09-09T21:21:05.038Z,6.4
2022-09-09T21:24:05.068Z,5.7
2022-09-09T21:27:05.051Z,6.4
2022-09-09T21:30:05.056Z,7.8
2022-09-09T21:33:05.070Z,6.4
2022-09-09T21:36:05.074Z,7.9
2022-09-09T21:39:05.069Z,5.7
2022-09-09T21:42:05.095Z,6
2022-09-09T21:45:05.085Z,8
2022-09-09T21:48:05.099Z,6.2
2022-09-09T21:51:05.094Z,7.3
2022-09-09T21:54:05.096Z,5.6
2022-09-09T21:57:05.102Z,7.1
2022-09-09T22:00:05.142Z,6.5
2022-09-09T22:03:05.131Z,5.9
2022-09-09T22:06:05.130Z,5.8
2022-09-09T22:09:05.137Z,6.5
2022-09-09T22:12:05.137Z,5.4
2022-09-09T22:15:05.134Z,5.8
2022-09-09T22:18:05.220Z,6.2
2022-09-09T22:21:05.156Z,5.1
2022-09-09T22:24:05.163Z,6.5
2022-09-09T22:27:05.169Z,7.6
2022-09-09T22:30:05.171Z,6.7
2022-09-09T22:33:05.189Z,6.4
2022-09-09T22:36:05.235Z,6.1
2022-09-09T22:39:05.198Z,7.6
2022-09-09T22:42:05.204Z,6.2
2022-09-09T22:45:05.214Z,6
2022-09-09T22:48:05.240Z,5.6
2022-09-09T22:51:05.231Z,6.6
2022-09-09T22:54:05.264Z,4.8
2022-09-09T22:57:05.247Z,5.6
2022-09-09T23:00:05.260Z,6.8
2022-09-09T23:03:05.275Z,5.4
2022-09-09T23:06:05.264Z,5.5
2022-09-09T23:09:05.271Z,5.5
2022-09-09T23:12:05.303Z,6.8
2022-09-09T23:15:05.289Z,4.9
2022-09-09T23:18:05.350Z,5.5
2022-09-09T23:21:05.292Z,6.4
2022-09-09T23:24:05.301Z,4.1
2022-09-09T23:27:05.310Z,4.6
2022-09-09T23:30:05.333Z,5.4
2022-09-09T23:33:05.394Z,4.1
2022-09-09T23:36:05.321Z,5.5
2022-09-09T23:39:05.329Z,5.3
2022-09-09T23:42:06.401Z,5.2
2022-09-09T23:45:05.348Z,6.1
2022-09-09T23:48:05.381Z,6
2022-09-09T23:51:05.345Z,6
2022-09-09T23:54:05.358Z,4.8
2022-09-09T23:57:05.363Z,5.4
